Balkan, Minnesota
Current Conditions -  °F | °C
As of 9:53 PM on Monday 22 Dec 2014 (Local Time) from KHIB Reporting Station
Haze Haze  
Wind Chill: 29°   Ceiling: 500
Heat Index: 35°   Visibility: 5mi
Dew Point: 32°   Wind: 7mph
Humidity: 89%   Direction: 110°ESE
Pressure: 29.73"   Gusts: NA
Location:  47.5741°N, 92.8546°W
Report Text: KHIB 230353Z AUTO 11006KT 5SM BR OVC005 02/00 A2973 RMK AO2 SLP083 T00170000
Loading
Personal Weather Stations






























Interactive Weather Map New forecast layout! Learn more

10-Day Weather Forecast

Advertisements
Track Severe Weather on mobile